Terminal Aerodrome Forecast
Issued by NWS

Home | Current Version | Previous Version | Graphics & Text | Print | Product List | Glossary Off
Versions: 1 2 3 4 5 6 7 8 9 10 11 12 13 14 15 16 17 18

000
FTUS43 KTOP 240700 AAA
TAFFOE
TAF AMD
KFOE 240758Z 2408/2506 17020G28KT P6SM BKN150
     FM240845 30014KT P6SM SCT020 OVC100
     FM240930 33012KT P6SM -SHRA VCTS SCT015 OVC035CB
      TEMPO 2410/2414 4SM -TSRA OVC025CB
     FM241700 34015G21KT P6SM VCSH SCT025 BKN035
     FM242000 34016G24KT P6SM FEW040 BKN100
     FM250100 29007KT P6SM SKC=

USA.gov is the U.S. government's official web portal to all federal, state and local government web resources and services.